createdAt,value
2022-08-20T00:03:04.332Z,12.02
2022-08-20T00:06:11.320Z,10.32
2022-08-20T00:09:14.691Z,11.55
2022-08-20T00:12:19.479Z,11.63
2022-08-20T00:15:28.576Z,13.40
2022-08-20T00:18:32.100Z,12.52
2022-08-20T00:21:36.678Z,10.18
2022-08-20T00:24:39.999Z,11.70
2022-08-20T00:27:44.763Z,15.35
2022-08-20T00:30:49.626Z,15.82
2022-08-20T00:33:53.620Z,11.40
2022-08-20T00:36:57.051Z,13.65
2022-08-20T00:40:00.901Z,16.38
2022-08-20T00:43:08.317Z,13.93
2022-08-20T00:46:14.235Z,14.15
2022-08-20T00:49:22.239Z,13.82
2022-08-20T00:52:25.651Z,14.55
2022-08-20T00:55:31.647Z,12.90
2022-08-20T00:58:38.508Z,10.48
2022-08-20T01:01:55.192Z,11.52
2022-08-20T01:05:00.218Z,12.32
2022-08-20T01:08:04.640Z,17.02
2022-08-20T01:11:10.418Z,13.00
2022-08-20T01:14:31.811Z,14.48
2022-08-20T01:17:38.026Z,13.00
2022-08-20T01:20:44.399Z,12.57
2022-08-20T01:23:53.232Z,13.77
2022-08-20T01:26:58.352Z,11.60
2022-08-20T01:30:06.945Z,15.23
2022-08-20T01:33:10.754Z,13.82
2022-08-20T01:36:16.737Z,16.55
2022-08-20T01:39:24.000Z,13.98
2022-08-20T01:42:37.557Z,12.35
2022-08-20T01:45:57.238Z,16.15
2022-08-20T01:49:13.534Z,19.25
2022-08-20T01:52:26.170Z,13.73
2022-08-20T01:55:29.529Z,14.90
2022-08-20T01:58:37.028Z,14.55
2022-08-20T02:01:46.752Z,13.18
2022-08-20T02:04:50.408Z,15.85
2022-08-20T02:07:53.689Z,15.25
2022-08-20T02:10:57.372Z,13.75
2022-08-20T02:14:02.373Z,13.63
2022-08-20T02:17:10.050Z,13.55
2022-08-20T02:20:17.089Z,15.30
2022-08-20T02:23:20.808Z,13.98
2022-08-20T02:26:24.605Z,16.27
2022-08-20T02:29:29.435Z,18.63
2022-08-20T02:32:34.396Z,14.32
2022-08-20T02:35:38.872Z,15.25
2022-08-20T02:38:42.881Z,16.00
2022-08-20T02:41:46.799Z,15.98
2022-08-20T02:44:51.849Z,13.45
2022-08-20T02:47:56.904Z,17.15
2022-08-20T02:51:03.887Z,14.85
2022-08-20T02:54:07.365Z,15.50
2022-08-20T02:57:14.036Z,13.15
2022-08-20T03:00:22.853Z,16.67
2022-08-20T03:03:26.720Z,10.77
2022-08-20T03:06:30.648Z,12.13
2022-08-20T03:09:34.530Z,13.75
2022-08-20T03:12:38.507Z,13.05
2022-08-20T03:15:46.691Z,10.70
2022-08-20T03:18:52.067Z,11.50
2022-08-20T03:21:55.725Z,13.38
2022-08-20T03:24:59.130Z,13.05
2022-08-20T03:28:02.785Z,10.38
2022-08-20T03:31:07.634Z,13.45
2022-08-20T03:34:10.969Z,11.82
2022-08-20T03:37:14.469Z,11.77
2022-08-20T03:40:23.540Z,11.65
2022-08-20T03:43:26.916Z,12.07
2022-08-20T03:46:31.786Z,18.75
2022-08-20T03:49:35.727Z,13.25
2022-08-20T03:52:39.252Z,19.23
2022-08-20T03:55:45.345Z,15.15
2022-08-20T03:58:48.799Z,10.95
2022-08-20T04:01:54.847Z,16.92
2022-08-20T04:04:58.189Z,16.33
2022-08-20T04:08:03.127Z,12.68
2022-08-20T04:11:07.119Z,16.55
2022-08-20T04:14:11.682Z,17.95
2022-08-20T04:17:22.119Z,11.95
2022-08-20T04:20:26.522Z,20.48
2022-08-20T04:23:30.218Z,18.80
2022-08-20T04:26:37.357Z,15.07
2022-08-20T04:29:43.159Z,17.73
2022-08-20T04:32:48.983Z,17.60
2022-08-20T04:35:53.390Z,17.45
2022-08-20T04:38:56.919Z,24.17
2022-08-20T04:42:00.443Z,16.15
2022-08-20T04:45:03.868Z,16.15
2022-08-20T04:48:14.262Z,14.27
2022-08-20T04:51:18.902Z,16.77
2022-08-20T04:54:22.376Z,17.33
2022-08-20T04:57:26.657Z,16.88
2022-08-20T05:00:32.969Z,15.02
2022-08-20T05:03:39.099Z,13.75
2022-08-20T05:06:42.423Z,16.45
2022-08-20T05:09:46.579Z,16.27
2022-08-20T05:12:55.105Z,14.40
2022-08-20T05:16:01.415Z,21.55
2022-08-20T05:19:06.512Z,14.32
2022-08-20T05:22:10.115Z,15.70
2022-08-20T05:25:13.985Z,13.27
2022-08-20T05:28:20.516Z,12.48
2022-08-20T05:31:23.887Z,16.23
2022-08-20T05:34:37.460Z,17.75
2022-08-20T05:37:42.369Z,16.48
2022-08-20T05:40:46.814Z,13.88
2022-08-20T05:43:51.526Z,12.02
2022-08-20T05:46:55.003Z,12.27
2022-08-20T05:49:59.912Z,14.15
2022-08-20T05:53:03.321Z,16.08
2022-08-20T05:56:07.055Z,17.63
2022-08-20T05:59:12.630Z,14.60
2022-08-20T06:02:33.800Z,15.85
2022-08-20T06:05:38.607Z,20.48
2022-08-20T06:08:42.226Z,18.17
2022-08-20T06:11:45.535Z,18.40
2022-08-20T06:14:48.895Z,19.70
2022-08-20T06:17:58.189Z,16.20
2022-08-20T06:21:03.435Z,13.52
2022-08-20T06:24:07.963Z,14.10
2022-08-20T06:27:15.742Z,15.27
2022-08-20T06:30:19.099Z,15.50
2022-08-20T06:33:22.508Z,21.45
2022-08-20T06:36:27.489Z,17.58
2022-08-20T06:39:31.296Z,14.35
2022-08-20T06:42:34.680Z,15.15
2022-08-20T06:45:39.177Z,19.45
2022-08-20T06:48:43.492Z,15.35
2022-08-20T06:51:50.069Z,16.92
2022-08-20T06:54:55.491Z,17.02
2022-08-20T06:57:59.890Z,18.55
2022-08-20T07:01:09.395Z,13.38
2022-08-20T07:04:13.682Z,15.52
2022-08-20T07:07:20.696Z,15.52
2022-08-20T07:10:25.874Z,13.07
2022-08-20T07:13:29.494Z,16.50
2022-08-20T07:16:33.313Z,13.52
2022-08-20T07:19:37.932Z,12.75
2022-08-20T07:22:43.597Z,11.27
2022-08-20T07:25:48.656Z,12.77
2022-08-20T07:28:52.172Z,14.70
2022-08-20T07:32:12.658Z,13.90
2022-08-20T07:35:18.458Z,12.70
2022-08-20T07:38:26.698Z,14.70
2022-08-20T07:41:30.051Z,11.23
2022-08-20T07:44:33.514Z,14.30
2022-08-20T07:47:36.856Z,16.70
2022-08-20T07:50:42.997Z,13.13
2022-08-20T07:53:48.981Z,17.92
2022-08-20T07:56:52.881Z,17.80
2022-08-20T07:59:56.428Z,13.77
2022-08-20T08:03:00.240Z,13.35
2022-08-20T08:06:03.567Z,14.40
2022-08-20T08:09:11.048Z,14.35
2022-08-20T08:12:15.221Z,20.80
2022-08-20T08:15:22.736Z,13.00
2022-08-20T08:18:31.904Z,13.27
2022-08-20T08:21:35.798Z,16.38
2022-08-20T08:24:41.787Z,16.20
2022-08-20T08:28:01.066Z,16.02
2022-08-20T08:31:04.416Z,12.55
2022-08-20T08:34:07.769Z,11.25
2022-08-20T08:37:11.219Z,14.25
2022-08-20T08:40:16.034Z,10.85
2022-08-20T08:43:21.537Z,12.40
2022-08-20T08:46:27.977Z,14.13
2022-08-20T08:49:37.984Z,13.95
2022-08-20T08:52:42.259Z,12.95
2022-08-20T08:55:47.054Z,12.73
2022-08-20T08:58:50.457Z,10.52
2022-08-20T09:01:57.673Z,16.67
2022-08-20T09:05:04.321Z,13.23
2022-08-20T09:08:16.876Z,11.63
2022-08-20T09:11:25.001Z,13.05
2022-08-20T09:14:28.286Z,11.63
2022-08-20T09:17:31.905Z,14.07
2022-08-20T09:20:35.557Z,12.13
2022-08-20T09:23:39.384Z,13.80
2022-08-20T09:26:44.982Z,12.65
2022-08-20T09:29:49.358Z,14.07
2022-08-20T09:32:52.819Z,16.15
2022-08-20T09:35:56.212Z,11.82
2022-08-20T09:38:59.556Z,13.70
2022-08-20T09:42:14.936Z,11.55
2022-08-20T09:45:18.876Z,11.65
2022-08-20T09:48:22.138Z,14.07
2022-08-20T09:51:35.531Z,11.50
2022-08-20T09:54:46.471Z,10.27
2022-08-20T09:57:52.657Z,12.95
2022-08-20T10:00:56.045Z,11.50
2022-08-20T10:03:59.326Z,11.82
2022-08-20T10:07:02.758Z,13.65
2022-08-20T10:10:07.492Z,15.05
2022-08-20T10:13:13.243Z,13.43
2022-08-20T10:16:18.708Z,11.73
2022-08-20T10:19:21.997Z,9.60
2022-08-20T10:22:28.099Z,14.43
2022-08-20T10:25:31.675Z,13.75
2022-08-20T10:28:36.808Z,12.02
2022-08-20T10:31:40.179Z,13.20
2022-08-20T10:34:46.066Z,9.77
2022-08-20T10:37:49.488Z,12.80
2022-08-20T10:40:52.805Z,12.40
2022-08-20T10:43:57.542Z,10.40
2022-08-20T10:47:14.755Z,9.90
2022-08-20T10:50:20.203Z,11.73
2022-08-20T10:53:23.735Z,12.57
2022-08-20T10:56:27.275Z,13.75
2022-08-20T10:59:32.350Z,11.70
2022-08-20T11:02:35.747Z,7.57
2022-08-20T11:05:39.429Z,12.10
2022-08-20T11:08:42.750Z,15.82
2022-08-20T11:11:46.083Z,16.63
2022-08-20T11:14:52.334Z,11.15
2022-08-20T11:17:56.567Z,9.93
2022-08-20T11:21:00.677Z,9.40
2022-08-20T11:24:04.789Z,8.38
2022-08-20T11:27:08.889Z,11.88
2022-08-20T11:30:16.438Z,10.52
2022-08-20T11:33:19.833Z,13.65
2022-08-20T11:36:27.016Z,10.07
2022-08-20T11:39:30.349Z,10.75
2022-08-20T11:42:33.627Z,13.98
2022-08-20T11:45:38.394Z,7.53
2022-08-20T11:48:41.685Z,9.00
2022-08-20T11:51:49.602Z,10.63
2022-08-20T11:54:54.836Z,8.55
2022-08-20T11:57:59.666Z,13.05
2022-08-20T12:01:05.463Z,11.10
2022-08-20T12:04:08.870Z,8.10
2022-08-20T12:07:13.411Z,10.35
2022-08-20T12:10:17.224Z,6.88
2022-08-20T12:13:20.560Z,8.75
2022-08-20T12:16:28.302Z,7.80
2022-08-20T12:19:31.584Z,15.38
2022-08-20T12:22:35.050Z,8.32
2022-08-20T12:25:38.341Z,8.85
2022-08-20T12:28:41.697Z,13.45
2022-08-20T12:31:46.500Z,7.60
2022-08-20T12:34:50.678Z,6.80
2022-08-20T12:37:54.427Z,7.75
2022-08-20T12:40:57.756Z,7.72
2022-08-20T12:44:07.088Z,8.70
2022-08-20T12:47:20.302Z,7.53
2022-08-20T12:50:30.914Z,8.13
2022-08-20T12:53:34.813Z,8.57
2022-08-20T12:56:38.100Z,9.38
2022-08-20T12:59:41.488Z,9.15
2022-08-20T13:02:46.323Z,8.32
2022-08-20T13:05:50.372Z,9.65
2022-08-20T13:08:53.692Z,6.60
2022-08-20T13:11:57.135Z,12.35
2022-08-20T13:15:00.513Z,8.25
2022-08-20T13:18:07.153Z,10.20
2022-08-20T13:21:10.501Z,13.75
2022-08-20T13:24:13.814Z,8.23
2022-08-20T13:27:22.789Z,9.15
2022-08-20T13:30:26.749Z,9.30
2022-08-20T13:33:31.982Z,7.55
2022-08-20T13:36:35.831Z,6.63
2022-08-20T13:39:40.303Z,7.30
2022-08-20T13:42:43.727Z,11.80
2022-08-20T13:45:47.044Z,6.88
2022-08-20T13:48:51.814Z,8.57
2022-08-20T13:51:55.124Z,9.68
2022-08-20T13:54:58.370Z,8.98
2022-08-20T13:58:06.796Z,8.30
2022-08-20T14:01:10.112Z,6.30
2022-08-20T14:04:14.887Z,9.05
2022-08-20T14:07:20.989Z,6.38
2022-08-20T14:10:31.379Z,8.82
2022-08-20T14:13:34.915Z,10.95
2022-08-20T14:16:39.888Z,11.77
2022-08-20T14:19:45.410Z,8.15
2022-08-20T14:22:48.998Z,9.00
2022-08-20T14:25:52.279Z,7.25
2022-08-20T14:28:55.657Z,12.73
2022-08-20T14:31:58.948Z,9.25
2022-08-20T14:35:03.782Z,6.63
2022-08-20T14:38:07.488Z,8.18
2022-08-20T14:41:10.776Z,14.35
2022-08-20T14:44:14.077Z,5.93
2022-08-20T14:47:20.825Z,8.25
2022-08-20T14:50:29.071Z,6.38
2022-08-20T14:53:32.385Z,6.75
2022-08-20T14:56:35.696Z,9.13
2022-08-20T14:59:39.201Z,7.85
2022-08-20T15:02:42.580Z,6.80
2022-08-20T15:05:47.311Z,6.30
2022-08-20T15:08:53.649Z,7.22
2022-08-20T15:11:57.010Z,8.77
2022-08-20T15:15:13.386Z,10.05
2022-08-20T15:18:19.351Z,9.07
2022-08-20T15:21:24.045Z,7.70
2022-08-20T15:24:27.365Z,11.30
2022-08-20T15:27:30.643Z,8.98
2022-08-20T15:30:33.971Z,7.32
2022-08-20T15:33:37.467Z,6.43
2022-08-20T15:36:42.198Z,6.50
2022-08-20T15:39:46.553Z,7.93
2022-08-20T15:42:50.062Z,7.75
2022-08-20T15:45:53.492Z,8.65
2022-08-20T15:48:56.935Z,11.45
2022-08-20T15:52:01.768Z,7.60
2022-08-20T15:55:07.094Z,12.40
2022-08-20T15:58:19.606Z,8.10
2022-08-20T16:01:33.838Z,7.30
2022-08-20T16:05:01.522Z,7.40
2022-08-20T16:08:17.185Z,12.10
2022-08-20T16:11:42.855Z,8.98
2022-08-20T16:14:52.120Z,9.27
2022-08-20T16:18:04.183Z,13.20
2022-08-20T16:21:13.438Z,11.40
2022-08-20T16:24:20.015Z,13.18
2022-08-20T16:27:33.271Z,18.52
2022-08-20T16:30:42.124Z,10.95
2022-08-20T16:33:59.252Z,11.82
2022-08-20T16:37:11.572Z,11.77
2022-08-20T16:40:23.758Z,15.40
2022-08-20T16:43:33.508Z,17.00
2022-08-20T16:46:41.270Z,18.73
2022-08-20T16:49:50.357Z,18.23
2022-08-20T16:52:54.346Z,20.10
2022-08-20T16:55:59.074Z,20.05
2022-08-20T16:59:07.217Z,20.92
2022-08-20T17:02:12.429Z,16.38
2022-08-20T17:05:15.932Z,15.05
2022-08-20T17:08:29.930Z,19.02
2022-08-20T17:11:35.894Z,29.38
2022-08-20T17:14:50.073Z,21.85
2022-08-20T17:17:55.796Z,18.08
2022-08-20T17:21:03.672Z,25.13
2022-08-20T17:24:16.579Z,23.85
2022-08-20T17:27:37.777Z,24.52
2022-08-20T17:30:42.295Z,16.83
2022-08-20T17:33:46.640Z,15.52
2022-08-20T17:36:54.618Z,19.85
2022-08-20T17:40:10.624Z,14.48
2022-08-20T17:43:27.535Z,15.10
2022-08-20T17:46:43.938Z,15.27
2022-08-20T17:50:02.164Z,17.70
2022-08-20T17:53:14.777Z,14.93
2022-08-20T17:56:22.788Z,11.07
2022-08-20T17:59:47.697Z,14.73
2022-08-20T18:03:00.444Z,11.90
2022-08-20T18:06:09.502Z,16.45
2022-08-20T18:09:18.409Z,14.68
2022-08-20T18:12:34.227Z,12.32
2022-08-20T18:15:50.760Z,16.20
2022-08-20T18:18:58.674Z,13.02
2022-08-20T18:22:12.042Z,12.50
2022-08-20T18:25:26.405Z,13.52
2022-08-20T18:28:38.364Z,13.70
2022-08-20T18:31:48.756Z,15.73
2022-08-20T18:34:52.843Z,14.63
2022-08-20T18:37:56.155Z,16.05
2022-08-20T18:41:11.541Z,18.25
2022-08-20T18:44:16.954Z,13.80
2022-08-20T18:47:25.089Z,12.48
2022-08-20T18:50:42.942Z,13.00
2022-08-20T18:53:51.810Z,12.82
2022-08-20T18:57:05.524Z,15.27
2022-08-20T19:00:13.251Z,15.40
2022-08-20T19:03:22.744Z,18.50
2022-08-20T19:06:43.057Z,17.02
2022-08-20T19:10:03.000Z,17.13
2022-08-20T19:13:28.872Z,19.83
2022-08-20T19:16:38.271Z,14.68
2022-08-20T19:19:43.057Z,19.27
2022-08-20T19:22:48.054Z,17.33
2022-08-20T19:25:55.740Z,21.65
2022-08-20T19:29:01.976Z,12.52
2022-08-20T19:32:08.836Z,14.07
2022-08-20T19:35:18.907Z,17.67
2022-08-20T19:38:22.708Z,15.75
2022-08-20T19:41:31.451Z,18.48
2022-08-20T19:44:42.025Z,16.98
2022-08-20T19:47:58.565Z,14.52
2022-08-20T19:51:10.271Z,15.90
2022-08-20T19:54:21.012Z,15.32
2022-08-20T19:57:27.290Z,17.58
2022-08-20T20:00:39.168Z,16.73
2022-08-20T20:03:43.105Z,15.88
2022-08-20T20:06:50.089Z,11.43
2022-08-20T20:09:56.677Z,16.98
2022-08-20T20:13:06.866Z,15.48
2022-08-20T20:16:10.430Z,12.70
2022-08-20T20:19:26.447Z,15.15
2022-08-20T20:22:34.346Z,18.42
2022-08-20T20:25:41.512Z,16.35
2022-08-20T20:28:47.371Z,15.68
2022-08-20T20:31:53.967Z,13.38
2022-08-20T20:35:00.061Z,20.65
2022-08-20T20:38:08.126Z,14.50
2022-08-20T20:41:21.667Z,15.52
2022-08-20T20:44:28.332Z,14.05
2022-08-20T20:47:35.965Z,14.95
2022-08-20T20:50:40.158Z,12.63
2022-08-20T20:53:54.867Z,16.52
2022-08-20T20:57:04.064Z,18.60
2022-08-20T21:00:12.725Z,13.80
2022-08-20T21:03:16.092Z,12.95
2022-08-20T21:06:20.988Z,17.80
2022-08-20T21:09:27.586Z,15.38
2022-08-20T21:12:31.024Z,13.38
2022-08-20T21:15:35.239Z,16.83
2022-08-20T21:18:38.715Z,14.77
2022-08-20T21:21:43.851Z,15.63
2022-08-20T21:24:51.533Z,15.80
2022-08-20T21:27:55.099Z,20.17
2022-08-20T21:30:58.650Z,14.68
2022-08-20T21:34:02.207Z,18.75
2022-08-20T21:37:05.522Z,17.33
2022-08-20T21:40:12.173Z,18.70
2022-08-20T21:43:15.706Z,16.83
2022-08-20T21:46:25.013Z,16.02
2022-08-20T21:49:30.407Z,19.38
2022-08-20T21:52:35.447Z,17.08
2022-08-20T21:55:41.404Z,15.75
2022-08-20T21:58:47.517Z,13.30
2022-08-20T22:01:51.218Z,14.98
2022-08-20T22:04:54.586Z,13.98
2022-08-20T22:07:57.884Z,14.82
2022-08-20T22:11:03.309Z,14.23
2022-08-20T22:14:09.484Z,11.57
2022-08-20T22:17:12.920Z,13.80
2022-08-20T22:20:16.232Z,15.68
2022-08-20T22:23:19.686Z,15.05
2022-08-20T22:26:27.301Z,15.38
2022-08-20T22:29:30.763Z,13.10
2022-08-20T22:32:46.871Z,13.50
2022-08-20T22:35:57.855Z,12.80
2022-08-20T22:39:01.447Z,8.80
2022-08-20T22:42:06.411Z,11.38
2022-08-20T22:45:14.511Z,13.85
2022-08-20T22:48:20.826Z,13.73
2022-08-20T22:51:30.407Z,10.98
2022-08-20T22:54:35.020Z,14.05
2022-08-20T22:57:40.110Z,10.15
2022-08-20T23:00:45.921Z,9.88
2022-08-20T23:03:49.291Z,11.90
2022-08-20T23:06:52.823Z,10.30
2022-08-20T23:09:56.144Z,12.05
2022-08-20T23:13:01.024Z,15.45
2022-08-20T23:16:05.221Z,12.75
2022-08-20T23:19:10.653Z,14.07
2022-08-20T23:22:14.252Z,10.35
2022-08-20T23:25:17.617Z,12.07
2022-08-20T23:28:25.124Z,12.77
2022-08-20T23:31:28.417Z,15.45
2022-08-20T23:34:31.865Z,8.40
2022-08-20T23:37:38.892Z,12.48
2022-08-20T23:40:42.718Z,15.45
2022-08-20T23:43:47.448Z,18.30
2022-08-20T23:46:50.993Z,14.38
2022-08-20T23:49:58.094Z,14.80
2022-08-20T23:53:01.367Z,13.00
2022-08-20T23:56:05.545Z,11.93
2022-08-20T23:59:10.228Z,8.75
